Aviation Digital Data Service (ADDS)

Output produced by METARs form (0904 UTC 24 March 2019)
found at http://www.aviationweather.gov/metar/data/
 
METAR text: SBAR 240900Z 33003KT 9999 FEW017 26/24 Q1012
Conditions at: SBAR (ARACAJU/SANTA MA, BR) observed 0900 UTC 24 March 2019
Temperature: 26.0°C (79°F)
Dewpoint: 24.0°C (75°F) [RH = 89%]
Pressure (altimeter): 29.88 inches Hg (1012.0 mb)
Winds: from the NNW (330 degrees) at 3 MPH (3 knots; 1.5 m/s)
Visibility: 6 or more miles (10+ km)
Ceiling: at least 12,000 feet AGL
Clouds: few clouds at 1700 feet AGL
Weather: no significant weather observed at this time

METAR text: SBAR 240800Z 01004KT 9999 SCT017 26/24 Q1011
Conditions at: SBAR (ARACAJU/SANTA MA, BR) observed 0800 UTC 24 March 2019
Temperature: 26.0°C (79°F)
Dewpoint: 24.0°C (75°F) [RH = 89%]
Pressure (altimeter): 29.85 inches Hg (1011.0 mb)
Winds: from the N (10 degrees) at 5 MPH (4 knots; 2.1 m/s)
Visibility: 6 or more miles (10+ km)
Ceiling: at least 12,000 feet AGL
Clouds: scattered clouds at 1700 feet AGL
Weather: no significant weather observed at this time

METAR text: SBAR 240700Z 32004KT 9999 SCT017 26/24 Q1011
Conditions at: SBAR (ARACAJU/SANTA MA, BR) observed 0700 UTC 24 March 2019
Temperature: 26.0°C (79°F)
Dewpoint: 24.0°C (75°F) [RH = 89%]
Pressure (altimeter): 29.85 inches Hg (1011.0 mb)
Winds: from the NW (320 degrees) at 5 MPH (4 knots; 2.1 m/s)
Visibility: 6 or more miles (10+ km)
Ceiling: at least 12,000 feet AGL
Clouds: scattered clouds at 1700 feet AGL
Weather: no significant weather observed at this time

METAR text: SBAR 240600Z 31002KT 9999 SCT016 26/24 Q1011
Conditions at: SBAR (ARACAJU/SANTA MA, BR) observed 0600 UTC 24 March 2019
Temperature: 26.0°C (79°F)
Dewpoint: 24.0°C (75°F) [RH = 89%]
Pressure (altimeter): 29.85 inches Hg (1011.0 mb)
Winds: from the NW (310 degrees) at 2 MPH (2 knots; 1.0 m/s)
Visibility: 6 or more miles (10+ km)
Ceiling: at least 12,000 feet AGL
Clouds: scattered clouds at 1600 feet AGL
Weather: no significant weather observed at this time

METAR text: SBAR 240500Z 33002KT 9999 SCT016 26/24 Q1012
Conditions at: SBAR (ARACAJU/SANTA MA, BR) observed 0500 UTC 24 March 2019
Temperature: 26.0°C (79°F)
Dewpoint: 24.0°C (75°F) [RH = 89%]
Pressure (altimeter): 29.88 inches Hg (1012.0 mb)
Winds: from the NNW (330 degrees) at 2 MPH (2 knots; 1.0 m/s)
Visibility: 6 or more miles (10+ km)
Ceiling: at least 12,000 feet AGL
Clouds: scattered clouds at 1600 feet AGL
Weather: no significant weather observed at this time

METAR text: SBAR 240410Z 32002KT 9000 SCT012 26/23 Q1013 RERA
Conditions at: SBAR (ARACAJU/SANTA MA, BR) observed 0410 UTC 24 March 2019
Temperature: 26.0°C (79°F)
Dewpoint: 23.0°C (73°F) [RH = 84%]
Pressure (altimeter): 29.91 inches Hg (1013.0 mb)
Winds: from the NW (320 degrees) at 2 MPH (2 knots; 1.0 m/s)
Visibility: 6 miles ( 9 km)
Ceiling: at least 12,000 feet AGL
Clouds: scattered clouds at 1200 feet AGL
Weather: no significant weather observed at this time

METAR text: SBAR 240400Z 03005KT 3000 RA SCT011 BKN013 27/24 Q1013
Conditions at: SBAR (ARACAJU/SANTA MA, BR) observed 0400 UTC 24 March 2019
Temperature: 27.0°C (81°F)
Dewpoint: 24.0°C (75°F) [RH = 84%]
Pressure (altimeter): 29.91 inches Hg (1013.0 mb)
Winds: from the NNE (30 degrees) at 6 MPH (5 knots; 2.6 m/s)
Visibility: 1.86 miles (2.99 km)
Ceiling: 1300 feet AGL
Clouds: scattered clouds at 1100 feet AGL
broken clouds at 1300 feet AGL
Weather: RA  (moderate rain)

METAR text: SBAR 240300Z 07002KT 9999 SCT013 SCT015 27/24 Q1013
Conditions at: SBAR (ARACAJU/SANTA MA, BR) observed 0300 UTC 24 March 2019
Temperature: 27.0°C (81°F)
Dewpoint: 24.0°C (75°F) [RH = 84%]
Pressure (altimeter): 29.91 inches Hg (1013.0 mb)
Winds: from the ENE (70 degrees) at 2 MPH (2 knots; 1.0 m/s)
Visibility: 6 or more miles (10+ km)
Ceiling: at least 12,000 feet AGL
Clouds: scattered clouds at 1300 feet AGL
scattered clouds at 1500 feet AGL
Weather: no significant weather observed at this time

METAR text: SBAR 240200Z 09004KT 9999 SCT016 27/24 Q1013
Conditions at: SBAR (ARACAJU/SANTA MA, BR) observed 0200 UTC 24 March 2019
Temperature: 27.0°C (81°F)
Dewpoint: 24.0°C (75°F) [RH = 84%]
Pressure (altimeter): 29.91 inches Hg (1013.0 mb)
Winds: from the E (90 degrees) at 5 MPH (4 knots; 2.1 m/s)
Visibility: 6 or more miles (10+ km)
Ceiling: at least 12,000 feet AGL
Clouds: scattered clouds at 1600 feet AGL
Weather: no significant weather observed at this time

METAR text: SBAR 240100Z 09005KT 9999 SCT016 28/24 Q1013
Conditions at: SBAR (ARACAJU/SANTA MA, BR) observed 0100 UTC 24 March 2019
Temperature: 28.0°C (82°F)
Dewpoint: 24.0°C (75°F) [RH = 79%]
Pressure (altimeter): 29.91 inches Hg (1013.0 mb)
Winds: from the E (90 degrees) at 6 MPH (5 knots; 2.6 m/s)
Visibility: 6 or more miles (10+ km)
Ceiling: at least 12,000 feet AGL
Clouds: scattered clouds at 1600 feet AGL
Weather: no significant weather observed at this time

METAR text: SBAR 240000Z 11007KT 9999 SCT015 28/23 Q1013
Conditions at: SBAR (ARACAJU/SANTA MA, BR) observed 0000 UTC 24 March 2019
Temperature: 28.0°C (82°F)
Dewpoint: 23.0°C (73°F) [RH = 74%]
Pressure (altimeter): 29.91 inches Hg (1013.0 mb)
Winds: from the ESE (110 degrees) at 8 MPH (7 knots; 3.6 m/s)
Visibility: 6 or more miles (10+ km)
Ceiling: at least 12,000 feet AGL
Clouds: scattered clouds at 1500 feet AGL
Weather: no significant weather observed at this time

METAR text: SBAR 232300Z 13007KT 9999 SCT017 28/24 Q1013
Conditions at: SBAR (ARACAJU/SANTA MA, BR) observed 2300 UTC 23 March 2019
Temperature: 28.0°C (82°F)
Dewpoint: 24.0°C (75°F) [RH = 79%]
Pressure (altimeter): 29.91 inches Hg (1013.0 mb)
Winds: from the SE (130 degrees) at 8 MPH (7 knots; 3.6 m/s)
Visibility: 6 or more miles (10+ km)
Ceiling: at least 12,000 feet AGL
Clouds: scattered clouds at 1700 feet AGL
Weather: no significant weather observed at this time

METAR text: SBAR 232200Z 15006KT 9999 SCT020 FEW021TCU 28/23 Q1012
Conditions at: SBAR (ARACAJU/SANTA MA, BR) observed 2200 UTC 23 March 2019
Temperature: 28.0°C (82°F)
Dewpoint: 23.0°C (73°F) [RH = 74%]
Pressure (altimeter): 29.88 inches Hg (1012.0 mb)
Winds: from the SSE (150 degrees) at 7 MPH (6 knots; 3.1 m/s)
Visibility: 6 or more miles (10+ km)
Ceiling: at least 12,000 feet AGL
Clouds: scattered clouds at 2000 feet AGL
few clouds at 2100 feet AGL
Weather: no significant weather observed at this time

METAR text: SBAR 232100Z 14009KT 9999 SCT020 FEW021TCU 29/23 Q1011
Conditions at: SBAR (ARACAJU/SANTA MA, BR) observed 2100 UTC 23 March 2019
Temperature: 29.0°C (84°F)
Dewpoint: 23.0°C (73°F) [RH = 70%]
Pressure (altimeter): 29.85 inches Hg (1011.0 mb)
Winds: from the SE (140 degrees) at 10 MPH (9 knots; 4.6 m/s)
Visibility: 6 or more miles (10+ km)
Ceiling: at least 12,000 feet AGL
Clouds: scattered clouds at 2000 feet AGL
few clouds at 2100 feet AGL
Weather: no significant weather observed at this time

METAR text: SBAR 232000Z 16008KT 9999 VCSH SCT020 FEW021TCU 29/23 Q1011
Conditions at: SBAR (ARACAJU/SANTA MA, BR) observed 2000 UTC 23 March 2019
Temperature: 29.0°C (84°F)
Dewpoint: 23.0°C (73°F) [RH = 70%]
Pressure (altimeter): 29.85 inches Hg (1011.0 mb)
Winds: from the SSE (160 degrees) at 9 MPH (8 knots; 4.1 m/s)
Visibility: 6 or more miles (10+ km)
Ceiling: at least 12,000 feet AGL
Clouds: scattered clouds at 2000 feet AGL
few clouds at 2100 feet AGL
Weather: VCSH  (showers in vicinity)

METAR text: SBAR 231900Z 14013KT 9000 VCSH SCT020 FEW021TCU 30/23 Q1010
Conditions at: SBAR (ARACAJU/SANTA MA, BR) observed 1900 UTC 23 March 2019
Temperature: 30.0°C (86°F)
Dewpoint: 23.0°C (73°F) [RH = 66%]
Pressure (altimeter): 29.82 inches Hg (1010.0 mb)
Winds: from the SE (140 degrees) at 15 MPH (13 knots; 6.7 m/s)
Visibility: 6 miles ( 9 km)
Ceiling: at least 12,000 feet AGL
Clouds: scattered clouds at 2000 feet AGL
few clouds at 2100 feet AGL
Weather: VCSH  (showers in vicinity)

METAR text: SBAR 231800Z 14013KT 9999 VCSH SCT020 FEW021TCU 30/24 Q1010
Conditions at: SBAR (ARACAJU/SANTA MA, BR) observed 1800 UTC 23 March 2019
Temperature: 30.0°C (86°F)
Dewpoint: 24.0°C (75°F) [RH = 70%]
Pressure (altimeter): 29.82 inches Hg (1010.0 mb)
Winds: from the SE (140 degrees) at 15 MPH (13 knots; 6.7 m/s)
Visibility: 6 or more miles (10+ km)
Ceiling: at least 12,000 feet AGL
Clouds: scattered clouds at 2000 feet AGL
few clouds at 2100 feet AGL
Weather: VCSH  (showers in vicinity)

METAR text: SBAR 231700Z 17009KT 9999 VCSH SCT021 FEW025TCU SCT100 30/23 Q1 010
Conditions at: SBAR (ARACAJU/SANTA MA, BR) observed 1700 UTC 23 March 2019
Temperature: 30.0°C (86°F)
Dewpoint: 23.0°C (73°F) [RH = 66%]
Pressure (altimeter): missing
Winds: from the S (170 degrees) at 10 MPH (9 knots; 4.6 m/s)
Visibility: 6 or more miles (10+ km)
Ceiling: at least 12,000 feet AGL
Clouds: scattered clouds at 2100 feet AGL
few clouds at 2500 feet AGL
scattered clouds at 10000 feet AGL
Weather: VCSH  (showers in vicinity)

METAR text: SBAR 231600Z 11011KT 9999 VCSH SCT021 FEW025TCU SCT100 31/23 Q1 010
Conditions at: SBAR (ARACAJU/SANTA MA, BR) observed 1600 UTC 23 March 2019
Temperature: 31.0°C (88°F)
Dewpoint: 23.0°C (73°F) [RH = 63%]
Pressure (altimeter): missing
Winds: from the ESE (110 degrees) at 13 MPH (11 knots; 5.7 m/s)
Visibility: 6 or more miles (10+ km)
Ceiling: at least 12,000 feet AGL
Clouds: scattered clouds at 2100 feet AGL
few clouds at 2500 feet AGL
scattered clouds at 10000 feet AGL
Weather: VCSH  (showers in vicinity)

METAR text: SBAR 231500Z 10008KT 9999 SCT020 SCT080 32/23 Q1012
Conditions at: SBAR (ARACAJU/SANTA MA, BR) observed 1500 UTC 23 March 2019
Temperature: 32.0°C (90°F)
Dewpoint: 23.0°C (73°F) [RH = 59%]
Pressure (altimeter): 29.88 inches Hg (1012.0 mb)
Winds: from the E (100 degrees) at 9 MPH (8 knots; 4.1 m/s)
Visibility: 6 or more miles (10+ km)
Ceiling: at least 12,000 feet AGL
Clouds: scattered clouds at 2000 feet AGL
scattered clouds at 8000 feet AGL
Weather: no significant weather observed at this time

METAR text: SBAR 231400Z 30005KT 9999 SCT018 SCT100 32/23 Q1013
Conditions at: SBAR (ARACAJU/SANTA MA, BR) observed 1400 UTC 23 March 2019
Temperature: 32.0°C (90°F)
Dewpoint: 23.0°C (73°F) [RH = 59%]
Pressure (altimeter): 29.91 inches Hg (1013.0 mb)
Winds: from the WNW (300 degrees) at 6 MPH (5 knots; 2.6 m/s)
Visibility: 6 or more miles (10+ km)
Ceiling: at least 12,000 feet AGL
Clouds: scattered clouds at 1800 feet AGL
scattered clouds at 10000 feet AGL
Weather: no significant weather observed at this time

METAR text: SBAR 231300Z 28006KT 9999 FEW018 SCT100 31/22 Q1013
Conditions at: SBAR (ARACAJU/SANTA MA, BR) observed 1300 UTC 23 March 2019
Temperature: 31.0°C (88°F)
Dewpoint: 22.0°C (72°F) [RH = 59%]
Pressure (altimeter): 29.91 inches Hg (1013.0 mb)
Winds: from the W (280 degrees) at 7 MPH (6 knots; 3.1 m/s)
Visibility: 6 or more miles (10+ km)
Ceiling: at least 12,000 feet AGL
Clouds: few clouds at 1800 feet AGL
scattered clouds at 10000 feet AGL
Weather: no significant weather observed at this time

METAR text: SBAR 231200Z 25007KT 9999 SCT017 SCT050 29/22 Q1014
Conditions at: SBAR (ARACAJU/SANTA MA, BR) observed 1200 UTC 23 March 2019
Temperature: 29.0°C (84°F)
Dewpoint: 22.0°C (72°F) [RH = 66%]
Pressure (altimeter): 29.94 inches Hg (1014.0 mb)
Winds: from the WSW (250 degrees) at 8 MPH (7 knots; 3.6 m/s)
Visibility: 6 or more miles (10+ km)
Ceiling: at least 12,000 feet AGL
Clouds: scattered clouds at 1700 feet AGL
scattered clouds at 5000 feet AGL
Weather: no significant weather observed at this time

METAR text: SBAR 231100Z 27010KT 9999 SCT013 FEW020TCU BKN070 27/23 Q1014
Conditions at: SBAR (ARACAJU/SANTA MA, BR) observed 1100 UTC 23 March 2019
Temperature: 27.0°C (81°F)
Dewpoint: 23.0°C (73°F) [RH = 79%]
Pressure (altimeter): 29.94 inches Hg (1014.0 mb)
Winds: from the W (270 degrees) at 12 MPH (10 knots; 5.1 m/s)
Visibility: 6 or more miles (10+ km)
Ceiling: 7000 feet AGL
Clouds: scattered clouds at 1300 feet AGL
few clouds at 2000 feet AGL
broken clouds at 7000 feet AGL
Weather: no significant weather observed at this time

METAR text: SBAR 231000Z 28006KT 9999 SCT016 SCT033 27/24 Q1013
Conditions at: SBAR (ARACAJU/SANTA MA, BR) observed 1000 UTC 23 March 2019
Temperature: 27.0°C (81°F)
Dewpoint: 24.0°C (75°F) [RH = 84%]
Pressure (altimeter): 29.91 inches Hg (1013.0 mb)
Winds: from the W (280 degrees) at 7 MPH (6 knots; 3.1 m/s)
Visibility: 6 or more miles (10+ km)
Ceiling: at least 12,000 feet AGL
Clouds: scattered clouds at 1600 feet AGL
scattered clouds at 3300 feet AGL
Weather: no significant weather observed at this time

METAR text: SBAR 230900Z 26004KT 9999 SCT018 SCT030 26/23 Q1012
Conditions at: SBAR (ARACAJU/SANTA MA, BR) observed 0900 UTC 23 March 2019
Temperature: 26.0°C (79°F)
Dewpoint: 23.0°C (73°F) [RH = 84%]
Pressure (altimeter): 29.88 inches Hg (1012.0 mb)
Winds: from the W (260 degrees) at 5 MPH (4 knots; 2.1 m/s)
Visibility: 6 or more miles (10+ km)
Ceiling: at least 12,000 feet AGL
Clouds: scattered clouds at 1800 feet AGL
scattered clouds at 3000 feet AGL
Weather: no significant weather observed at this time

METAR text: SBAR 230800Z 26005KT CAVOK 26/23 Q1011
Conditions at: SBAR (ARACAJU/SANTA MA, BR) observed 0800 UTC 23 March 2019
Temperature: 26.0°C (79°F)
Dewpoint: 23.0°C (73°F) [RH = 84%]
Pressure (altimeter): 29.85 inches Hg (1011.0 mb)
Winds: from the W (260 degrees) at 6 MPH (5 knots; 2.6 m/s)
Visibility: 6 or more miles (10+ km)
Ceiling: ceiling and visibility are OK
Clouds: unknown
Weather: no significant weather observed at this time

METAR text: SBAR 230700Z 02005KT 9999 FEW020 27/23 Q1010
Conditions at: SBAR (ARACAJU/SANTA MA, BR) observed 0700 UTC 23 March 2019
Temperature: 27.0°C (81°F)
Dewpoint: 23.0°C (73°F) [RH = 79%]
Pressure (altimeter): 29.82 inches Hg (1010.0 mb)
Winds: from the NNE (20 degrees) at 6 MPH (5 knots; 2.6 m/s)
Visibility: 6 or more miles (10+ km)
Ceiling: at least 12,000 feet AGL
Clouds: few clouds at 2000 feet AGL
Weather: no significant weather observed at this time

METAR text: SBAR 230600Z 31002KT 9999 FEW020 26/23 Q1010
Conditions at: SBAR (ARACAJU/SANTA MA, BR) observed 0600 UTC 23 March 2019
Temperature: 26.0°C (79°F)
Dewpoint: 23.0°C (73°F) [RH = 84%]
Pressure (altimeter): 29.82 inches Hg (1010.0 mb)
Winds: from the NW (310 degrees) at 2 MPH (2 knots; 1.0 m/s)
Visibility: 6 or more miles (10+ km)
Ceiling: at least 12,000 feet AGL
Clouds: few clouds at 2000 feet AGL
Weather: no significant weather observed at this time

METAR text: SBAR 230500Z 27003KT 9999 FEW018 25/23 Q1011
Conditions at: SBAR (ARACAJU/SANTA MA, BR) observed 0500 UTC 23 March 2019
Temperature: 25.0°C (77°F)
Dewpoint: 23.0°C (73°F) [RH = 89%]
Pressure (altimeter): 29.85 inches Hg (1011.0 mb)
Winds: from the W (270 degrees) at 3 MPH (3 knots; 1.5 m/s)
Visibility: 6 or more miles (10+ km)
Ceiling: at least 12,000 feet AGL
Clouds: few clouds at 1800 feet AGL
Weather: no significant weather observed at this time

METAR text: SBAR 230400Z 34003KT 9999 FEW017 26/23 Q1011
Conditions at: SBAR (ARACAJU/SANTA MA, BR) observed 0400 UTC 23 March 2019
Temperature: 26.0°C (79°F)
Dewpoint: 23.0°C (73°F) [RH = 84%]
Pressure (altimeter): 29.85 inches Hg (1011.0 mb)
Winds: from the NNW (340 degrees) at 3 MPH (3 knots; 1.5 m/s)
Visibility: 6 or more miles (10+ km)
Ceiling: at least 12,000 feet AGL
Clouds: few clouds at 1700 feet AGL
Weather: no significant weather observed at this time

METAR text: SBAR 230300Z 36003KT 9999 SCT016 25/22 Q1012
Conditions at: SBAR (ARACAJU/SANTA MA, BR) observed 0300 UTC 23 March 2019
Temperature: 25.0°C (77°F)
Dewpoint: 22.0°C (72°F) [RH = 83%]
Pressure (altimeter): 29.88 inches Hg (1012.0 mb)
Winds: from the N (360 degrees) at 3 MPH (3 knots; 1.5 m/s)
Visibility: 6 or more miles (10+ km)
Ceiling: at least 12,000 feet AGL
Clouds: scattered clouds at 1600 feet AGL
Weather: no significant weather observed at this time

METAR text: SBAR 230200Z 24002KT 9999 FEW017 26/23 Q1012
Conditions at: SBAR (ARACAJU/SANTA MA, BR) observed 0200 UTC 23 March 2019
Temperature: 26.0°C (79°F)
Dewpoint: 23.0°C (73°F) [RH = 84%]
Pressure (altimeter): 29.88 inches Hg (1012.0 mb)
Winds: from the WSW (240 degrees) at 2 MPH (2 knots; 1.0 m/s)
Visibility: 6 or more miles (10+ km)
Ceiling: at least 12,000 feet AGL
Clouds: few clouds at 1700 feet AGL
Weather: no significant weather observed at this time

METAR text: SBAR 230100Z 23003KT 9999 FEW018 26/23 Q1013
Conditions at: SBAR (ARACAJU/SANTA MA, BR) observed 0100 UTC 23 March 2019
Temperature: 26.0°C (79°F)
Dewpoint: 23.0°C (73°F) [RH = 84%]
Pressure (altimeter): 29.91 inches Hg (1013.0 mb)
Winds: from the SW (230 degrees) at 3 MPH (3 knots; 1.5 m/s)
Visibility: 6 or more miles (10+ km)
Ceiling: at least 12,000 feet AGL
Clouds: few clouds at 1800 feet AGL
Weather: no significant weather observed at this time

METAR text: SBAR 230000Z 21004KT 9999 FEW018 27/23 Q1012
Conditions at: SBAR (ARACAJU/SANTA MA, BR) observed 0000 UTC 23 March 2019
Temperature: 27.0°C (81°F)
Dewpoint: 23.0°C (73°F) [RH = 79%]
Pressure (altimeter): 29.88 inches Hg (1012.0 mb)
Winds: from the SSW (210 degrees) at 5 MPH (4 knots; 2.1 m/s)
Visibility: 6 or more miles (10+ km)
Ceiling: at least 12,000 feet AGL
Clouds: few clouds at 1800 feet AGL
Weather: no significant weather observed at this time

METAR text: SBAR 222300Z 30003KT 9999 FEW017 27/24 Q1011 RETS
Conditions at: SBAR (ARACAJU/SANTA MA, BR) observed 2300 UTC 22 March 2019
Temperature: 27.0°C (81°F)
Dewpoint: 24.0°C (75°F) [RH = 84%]
Pressure (altimeter): 29.85 inches Hg (1011.0 mb)
Winds: from the WNW (300 degrees) at 3 MPH (3 knots; 1.5 m/s)
Visibility: 6 or more miles (10+ km)
Ceiling: at least 12,000 feet AGL
Clouds: few clouds at 1700 feet AGL
Weather: no significant weather observed at this time

METAR text: SBAR 222200Z 28003KT 9999 TS FEW015 FEW030CB SCT080 28/25 Q1010
Conditions at: SBAR (ARACAJU/SANTA MA, BR) observed 2200 UTC 22 March 2019
Temperature: 28.0°C (82°F)
Dewpoint: 25.0°C (77°F) [RH = 84%]
Pressure (altimeter): 29.82 inches Hg (1010.0 mb)
Winds: from the W (280 degrees) at 3 MPH (3 knots; 1.5 m/s)
Visibility: 6 or more miles (10+ km)
Ceiling: at least 12,000 feet AGL
Clouds: few clouds at 1500 feet AGL
few clouds at 3000 feet AGL
scattered clouds at 8000 feet AGL
Weather: TS  (thunderstorm)

Forecast for: SBAR (ARACAJU/SANTA MA, BR)
Text: TAF SBAR 240400Z 2406/2418 03006KT 9999 BKN012 TN27/2309Z TX34/2314Z
Forecast period: 0600 to 0800 UTC 24 March 2019
Forecast type: FROM: standard forecast or significant change
Winds: from the NNE (30 degrees) at 7 MPH (6 knots; 3.1 m/s)
Visibility: 6 or more miles 10+ km)
Ceiling: 1200 feet AGL
Clouds: broken clouds at 1200 feet AGL
Weather: no significant weather forecast for this period
Text: BECMG 2408/2410 32005KT SCT012 SCT030
Forecast period: 0800 to 1100 UTC 24 March 2019
Forecast type: BECOMING: Conditions expected to become as follows by 1000 UTC 24 March 2019
Winds: from the NW (320 degrees) at 6 MPH (5 knots; 2.6 m/s)
Visibility: 6 or more miles 10+ km)
Ceiling: at least 12,000 feet AGL
Clouds: scattered clouds at 1200 feet AGL
scattered clouds at 3000 feet AGL
Weather: no significant weather forecast for this period
Text: BECMG 2411/2413 SCT020 RMK PEO
Forecast period: 1100 to 1800 UTC 24 March 2019
Forecast type: BECOMING: Conditions expected to become as follows by 1300 UTC 24 March 2019
Winds: from the NW (320 degrees) at 6 MPH (5 knots; 2.6 m/s)
Visibility: 6 or more miles 10+ km)
Ceiling: at least 12,000 feet AGL
Clouds: scattered clouds at 2000 feet AGL
Weather: no significant weather forecast for this period